createdAt,value
2019-02-22T00:02:37.997Z,100675.61
2019-02-22T00:05:07.038Z,100675.61
2019-02-22T00:07:35.118Z,100682.58
2019-02-22T00:10:03.549Z,100679.47
2019-02-22T00:12:31.846Z,100673.47
2019-02-22T00:15:00.838Z,100684.72
2019-02-22T00:17:28.901Z,100687.25
2019-02-22T00:19:57.028Z,100686.78
2019-02-22T00:22:25.054Z,100686.06
2019-02-22T00:24:52.843Z,100689.89
2019-02-22T00:27:20.610Z,100686.53
2019-02-22T00:29:48.430Z,100688.56
2019-02-22T00:32:16.296Z,100686.17
2019-02-22T00:34:44.590Z,100685.81
2019-02-22T00:37:12.377Z,100681.00
2019-02-22T00:39:40.328Z,100690.24
2019-02-22T00:42:08.251Z,100680.78
2019-02-22T00:44:36.201Z,100684.36
2019-02-22T00:47:03.948Z,100685.81
2019-02-22T00:49:31.694Z,100683.53
2019-02-22T00:51:59.593Z,100681.36
2019-02-22T00:54:27.360Z,100688.81
2019-02-22T00:56:55.201Z,100691.92
2019-02-22T00:59:23.076Z,100683.53
2019-02-22T01:01:50.983Z,100685.92
2019-02-22T01:04:18.755Z,100685.57
2019-02-22T01:06:46.563Z,100682.92
2019-02-22T01:09:14.530Z,100680.19
2019-02-22T01:11:42.463Z,100681.39
2019-02-22T01:14:10.214Z,100680.67
2019-02-22T01:16:38.040Z,100680.78
2019-02-22T01:19:05.905Z,100689.17
2019-02-22T01:21:33.734Z,100690.14
2019-02-22T01:24:01.510Z,100690.14
2019-02-22T01:26:29.500Z,100692.28
2019-02-22T01:28:57.228Z,100697.80
2019-02-22T01:31:25.361Z,100693.73
2019-02-22T01:33:54.205Z,100689.67
2019-02-22T01:36:23.076Z,100692.77
2019-02-22T01:38:50.921Z,100689.78
2019-02-22T01:41:18.768Z,100691.59
2019-02-22T01:43:46.536Z,100687.98
2019-02-22T01:46:14.487Z,100699.02
2019-02-22T01:48:42.333Z,100694.09
2019-02-22T01:51:10.247Z,100697.33
2019-02-22T01:53:41.988Z,100707.17
2019-02-22T01:56:09.904Z,100708.39
2019-02-22T01:58:48.005Z,100703.82
2019-02-22T02:01:07.683Z,100713.30
2019-02-22T02:03:35.430Z,100712.34
2019-02-22T02:06:03.256Z,100711.63
2019-02-22T02:08:31.070Z,100715.83
2019-02-22T02:10:58.837Z,100714.97
2019-02-22T02:13:26.726Z,100718.46
2019-02-22T02:15:54.691Z,100720.63
2019-02-22T02:18:23.008Z,100722.42
2019-02-22T02:20:51.793Z,100724.34
2019-02-22T02:23:19.740Z,100726.03
2019-02-22T02:25:47.580Z,100729.02
2019-02-22T02:28:15.554Z,100730.70
2019-02-22T02:30:43.524Z,100733.33
2019-02-22T02:33:11.363Z,100734.43
2019-02-22T02:35:39.126Z,100739.83
2019-02-22T02:38:07.009Z,100735.00
2019-02-22T02:40:34.859Z,100738.48
2019-02-22T02:43:02.845Z,100733.20
2019-02-22T02:45:30.779Z,100738.61
2019-02-22T02:47:58.683Z,100748.67
2019-02-22T02:50:26.405Z,100741.84
2019-02-22T02:52:54.330Z,100750.35
2019-02-22T02:55:38.318Z,100754.09
2019-02-22T02:58:06.232Z,100760.78
2019-02-22T03:00:33.984Z,100761.38
2019-02-22T03:03:01.897Z,100763.91
2019-02-22T03:05:44.189Z,100762.48
2019-02-22T03:08:12.194Z,100776.73
2019-02-22T03:10:40.172Z,100787.41
2019-02-22T03:13:08.114Z,100803.47
2019-02-22T03:15:36.066Z,100815.58
2019-02-22T03:18:03.910Z,100822.53
2019-02-22T03:20:31.816Z,100833.45
2019-02-22T03:22:59.563Z,100831.02
2019-02-22T03:25:27.365Z,100838.02
2019-02-22T03:27:55.314Z,100846.03
2019-02-22T03:30:23.216Z,100851.92
2019-02-22T03:32:50.954Z,100854.72
2019-02-22T03:35:18.758Z,100862.58
2019-02-22T03:37:46.504Z,100870.42
2019-02-22T03:40:14.435Z,100873.93
2019-02-22T03:42:42.216Z,100881.56
2019-02-22T03:45:10.659Z,100881.88
2019-02-22T03:47:38.489Z,100891.84
2019-02-22T03:50:06.500Z,100895.42
2019-02-22T03:52:42.031Z,100898.66
2019-02-22T03:55:10.033Z,100907.28
2019-02-22T03:57:37.896Z,100908.36
2019-02-22T04:00:06.877Z,100914.04
2019-02-22T04:02:34.721Z,100924.06
2019-02-22T04:05:02.726Z,100927.66
2019-02-22T04:07:30.582Z,100937.17
2019-02-22T04:09:58.617Z,100938.86
2019-02-22T04:12:26.358Z,100954.53
2019-02-22T04:14:54.353Z,100954.59
2019-02-22T04:17:22.319Z,100954.59
2019-02-22T04:19:50.138Z,100971.46
2019-02-22T04:22:18.007Z,100983.33
2019-02-22T04:24:45.840Z,100994.80
2019-02-22T04:27:13.720Z,101009.02
2019-02-22T04:29:41.744Z,101010.73
2019-02-22T04:32:09.625Z,101026.33
2019-02-22T04:34:37.407Z,101026.08
2019-02-22T04:37:05.439Z,101034.55
2019-02-22T04:39:33.213Z,101051.36
2019-02-22T04:42:01.047Z,101059.34
2019-02-22T04:44:28.817Z,101069.27
2019-02-22T04:46:56.749Z,101088.36
2019-02-22T04:49:24.627Z,101101.69
2019-02-22T04:51:52.571Z,101111.81
2019-02-22T04:54:20.336Z,101116.88
2019-02-22T04:56:48.179Z,101122.77
2019-02-22T04:59:15.958Z,101127.35
2019-02-22T05:01:43.800Z,101148.85
2019-02-22T05:04:11.581Z,101159.13
2019-02-22T05:06:39.395Z,101178.44
2019-02-22T05:09:07.230Z,101184.06
2019-02-22T05:11:35.137Z,101187.07
2019-02-22T05:14:02.984Z,101206.19
2019-02-22T05:16:30.800Z,101216.84
2019-02-22T05:18:58.653Z,101220.57
2019-02-22T05:21:26.479Z,101227.33
2019-02-22T05:23:54.252Z,101232.80
2019-02-22T05:26:22.187Z,101237.73
2019-02-22T05:28:50.193Z,101239.39
2019-02-22T05:31:23.560Z,101242.59
2019-02-22T05:33:51.327Z,101256.17
2019-02-22T05:36:20.082Z,101283.95
2019-02-22T05:38:47.837Z,101299.80
2019-02-22T05:41:15.750Z,101307.35
2019-02-22T05:43:43.558Z,101311.01
2019-02-22T05:46:11.379Z,101314.30
2019-02-22T05:48:39.236Z,101326.27
2019-02-22T05:51:07.174Z,101337.52
2019-02-22T05:53:35.132Z,101338.69
2019-02-22T05:56:03.099Z,101353.05
2019-02-22T05:58:31.108Z,101371.84
2019-02-22T06:00:59.071Z,101384.97
2019-02-22T06:03:26.909Z,101384.89
2019-02-22T06:05:54.680Z,101396.75
2019-02-22T06:08:22.549Z,101403.69
2019-02-22T06:10:50.292Z,101418.30
2019-02-22T06:13:18.120Z,101417.49
2019-02-22T06:15:46.688Z,101431.05
2019-02-22T06:18:14.515Z,101438.59
2019-02-22T06:20:42.506Z,101442.44
2019-02-22T06:23:10.329Z,101460.19
2019-02-22T06:25:38.080Z,101458.22
2019-02-22T06:28:05.900Z,101458.44
2019-02-22T06:30:33.775Z,101484.89
2019-02-22T06:33:07.548Z,101494.44
2019-02-22T06:35:35.333Z,101494.90
2019-02-22T06:38:03.269Z,101494.35
2019-02-22T06:40:31.044Z,101505.13
2019-02-22T06:42:59.000Z,101508.28
2019-02-22T06:45:26.758Z,101526.88
2019-02-22T06:47:54.622Z,101542.21
2019-02-22T06:50:33.397Z,101543.52
2019-02-22T06:52:54.420Z,101560.05
2019-02-22T06:55:22.276Z,101582.98
2019-02-22T06:57:51.111Z,101599.09
2019-02-22T07:00:19.557Z,101606.44
2019-02-22T07:02:47.464Z,101616.83
2019-02-22T07:05:15.321Z,101621.26
2019-02-22T07:07:43.076Z,101626.77
2019-02-22T07:10:10.906Z,101629.52
2019-02-22T07:12:41.997Z,101630.70
2019-02-22T07:15:09.978Z,101642.60
2019-02-22T07:17:37.881Z,101656.20
2019-02-22T07:20:07.446Z,101661.56
2019-02-22T07:22:35.313Z,101664.66
2019-02-22T07:25:03.404Z,101676.88
2019-02-22T07:27:31.150Z,101689.05
2019-02-22T07:29:58.974Z,101687.73
2019-02-22T07:32:26.830Z,101705.61
2019-02-22T07:34:54.644Z,101700.75
2019-02-22T07:37:23.014Z,101723.48
2019-02-22T07:39:51.023Z,101721.66
2019-02-22T07:42:18.972Z,101732.65
2019-02-22T07:44:47.591Z,101743.03
2019-02-22T07:47:15.405Z,101744.39
2019-02-22T07:49:43.335Z,101748.22
2019-02-22T07:52:11.188Z,101756.78
2019-02-22T07:54:39.115Z,101766.94
2019-02-22T07:57:06.883Z,101780.68
2019-02-22T07:59:34.807Z,101778.55
2019-02-22T08:02:02.674Z,101791.10
2019-02-22T08:04:30.464Z,101805.35
2019-02-22T08:06:58.208Z,101810.14
2019-02-22T08:09:26.039Z,101818.56
2019-02-22T08:11:53.912Z,101821.38
2019-02-22T08:14:21.965Z,101832.36
2019-02-22T08:16:49.744Z,101840.37
2019-02-22T08:19:17.645Z,101848.77
2019-02-22T08:21:45.401Z,101849.21
2019-02-22T08:24:13.181Z,101864.44
2019-02-22T08:26:41.086Z,101870.70
2019-02-22T08:29:09.054Z,101882.47
2019-02-22T08:31:37.181Z,101891.70
2019-02-22T08:34:05.026Z,101891.65
2019-02-22T08:36:32.825Z,101900.34
2019-02-22T08:39:00.598Z,101903.42
2019-02-22T08:41:28.495Z,101905.14
2019-02-22T08:43:56.434Z,101909.78
2019-02-22T08:46:24.238Z,101909.88
2019-02-22T08:48:53.404Z,101922.20
2019-02-22T08:51:21.227Z,101932.95
2019-02-22T08:53:49.069Z,101937.61
2019-02-22T08:56:16.985Z,101940.99
2019-02-22T08:58:44.750Z,101946.37
2019-02-22T09:01:12.679Z,101961.42
2019-02-22T09:03:49.934Z,101958.37
2019-02-22T09:06:10.231Z,101973.80
2019-02-22T09:08:49.703Z,101982.92
2019-02-22T09:11:17.698Z,101986.03
2019-02-22T09:13:45.473Z,102002.28
2019-02-22T09:16:13.369Z,102009.73
2019-02-22T09:18:41.134Z,102017.88
2019-02-22T09:21:09.867Z,102024.93
2019-02-22T09:23:37.642Z,102028.03
2019-02-22T09:26:05.759Z,102029.66
2019-02-22T09:28:33.797Z,102035.17
2019-02-22T09:31:01.832Z,102043.78
2019-02-22T09:33:29.671Z,102035.11
2019-02-22T09:35:57.706Z,102055.50
2019-02-22T09:38:25.591Z,102048.67
2019-02-22T09:40:53.432Z,102049.78
2019-02-22T09:43:21.480Z,102059.66
2019-02-22T09:45:49.353Z,102060.45
2019-02-22T09:48:17.980Z,102065.21
2019-02-22T09:50:46.233Z,102069.69
2019-02-22T09:53:14.167Z,102069.06
2019-02-22T09:55:42.010Z,102079.44
2019-02-22T09:58:09.823Z,102080.94
2019-02-22T10:00:37.685Z,102090.74
2019-02-22T10:03:05.490Z,102092.25
2019-02-22T10:05:33.259Z,102084.44
2019-02-22T10:08:01.081Z,102094.47
2019-02-22T10:10:32.525Z,102098.25
2019-02-22T10:13:01.257Z,102093.33
2019-02-22T10:15:29.639Z,102100.15
2019-02-22T10:17:57.472Z,102101.30
2019-02-22T10:20:25.218Z,102108.84
2019-02-22T10:22:53.037Z,102102.97
2019-02-22T10:25:20.820Z,102101.41
2019-02-22T10:27:48.648Z,102105.22
2019-02-22T10:30:17.219Z,102111.56
2019-02-22T10:32:45.462Z,102112.84
2019-02-22T10:35:13.203Z,102124.02
2019-02-22T10:37:41.184Z,102114.84
2019-02-22T10:40:09.142Z,102113.55
2019-02-22T10:42:36.947Z,102115.96
2019-02-22T10:45:05.292Z,102120.69
2019-02-22T10:47:33.226Z,102125.23
2019-02-22T10:50:01.124Z,102125.56
2019-02-22T10:52:28.926Z,102131.99
2019-02-22T10:54:56.694Z,102132.81
2019-02-22T10:57:24.511Z,102131.34
2019-02-22T10:59:52.359Z,102133.91
2019-02-22T11:02:20.126Z,102137.48
2019-02-22T11:04:48.629Z,102147.12
2019-02-22T11:07:16.369Z,102148.69
2019-02-22T11:09:44.213Z,102154.30
2019-02-22T11:12:12.791Z,102145.98
2019-02-22T11:14:40.696Z,102155.44
2019-02-22T11:17:08.582Z,102154.50
2019-02-22T11:19:37.326Z,102143.25
2019-02-22T11:22:05.073Z,102154.51
2019-02-22T11:24:34.125Z,102166.59
2019-02-22T11:27:01.992Z,102162.88
2019-02-22T11:29:29.998Z,102161.38
2019-02-22T11:31:57.845Z,102162.27
2019-02-22T11:34:25.742Z,102171.02
2019-02-22T11:36:53.719Z,102170.46
2019-02-22T11:39:21.628Z,102172.00
2019-02-22T11:41:49.510Z,102174.06
2019-02-22T11:44:17.404Z,102178.98
2019-02-22T11:46:45.147Z,102185.86
2019-02-22T11:49:13.154Z,102192.99
2019-02-22T11:51:41.101Z,102196.75
2019-02-22T11:54:08.927Z,102197.09
2019-02-22T11:56:36.884Z,102207.64
2019-02-22T11:59:04.815Z,102216.39
2019-02-22T12:01:32.703Z,102210.13
2019-02-22T12:04:00.519Z,102209.41
2019-02-22T12:06:28.308Z,102216.66
2019-02-22T12:08:56.110Z,102213.96
2019-02-22T12:11:24.000Z,102228.38
2019-02-22T12:13:51.973Z,102235.11
2019-02-22T12:16:19.755Z,102235.01
2019-02-22T12:18:47.607Z,102242.70
2019-02-22T12:21:15.545Z,102247.86
2019-02-22T12:23:43.333Z,102248.83
2019-02-22T12:26:11.131Z,102253.67
2019-02-22T12:28:38.919Z,102256.13
2019-02-22T12:31:07.364Z,102252.34
2019-02-22T12:33:35.843Z,102253.48
2019-02-22T12:36:03.877Z,102260.85
2019-02-22T12:38:31.755Z,102253.63
2019-02-22T12:40:59.672Z,102247.13
2019-02-22T12:43:28.130Z,102253.55
2019-02-22T12:45:58.547Z,102250.17
2019-02-22T12:48:26.941Z,102259.02
2019-02-22T12:50:54.851Z,102255.64
2019-02-22T12:53:23.323Z,102258.92
2019-02-22T12:55:51.254Z,102257.64
2019-02-22T12:58:19.154Z,102258.69
2019-02-22T13:00:47.085Z,102263.16
2019-02-22T13:03:14.991Z,102270.05
2019-02-22T13:05:44.129Z,102271.27
2019-02-22T13:08:11.912Z,102265.67
2019-02-22T13:10:39.760Z,102272.01
2019-02-22T13:13:07.714Z,102278.52
2019-02-22T13:15:35.714Z,102286.20
2019-02-22T13:18:03.473Z,102286.36
2019-02-22T13:20:31.492Z,102286.62
2019-02-22T13:22:59.342Z,102293.16
2019-02-22T13:25:27.282Z,102298.44
2019-02-22T13:27:55.025Z,102299.12
2019-02-22T13:30:23.063Z,102301.17
2019-02-22T13:32:50.831Z,102306.23
2019-02-22T13:35:18.753Z,102304.66
2019-02-22T13:37:46.518Z,102309.34
2019-02-22T13:40:14.436Z,102319.00
2019-02-22T13:42:42.401Z,102313.44
2019-02-22T13:45:10.714Z,102320.74
2019-02-22T13:47:38.757Z,102316.97
2019-02-22T13:50:09.873Z,102326.09
2019-02-22T13:52:37.647Z,102329.05
2019-02-22T13:55:05.965Z,102335.24
2019-02-22T13:57:33.767Z,102337.91
2019-02-22T14:00:01.641Z,102339.19
2019-02-22T14:02:29.635Z,102342.80
2019-02-22T14:04:57.382Z,102355.34
2019-02-22T14:07:25.284Z,102356.40
2019-02-22T14:09:53.069Z,102355.73
2019-02-22T14:12:20.877Z,102353.58
2019-02-22T14:14:49.407Z,102357.21
2019-02-22T14:17:17.230Z,102361.02
2019-02-22T14:19:44.992Z,102363.27
2019-02-22T14:22:12.794Z,102364.53
2019-02-22T14:24:41.073Z,102363.47
2019-02-22T14:27:08.868Z,102376.27
2019-02-22T14:29:36.630Z,102385.29
2019-02-22T14:32:04.722Z,102383.39
2019-02-22T14:34:32.470Z,102389.24
2019-02-22T14:37:00.299Z,102396.47
2019-02-22T14:39:28.067Z,102402.02
2019-02-22T14:41:55.999Z,102403.58
2019-02-22T14:44:23.960Z,102410.20
2019-02-22T14:46:51.838Z,102407.91
2019-02-22T14:49:19.587Z,102418.30
2019-02-22T14:51:47.516Z,102423.04
2019-02-22T14:54:15.385Z,102426.95
2019-02-22T14:56:43.311Z,102431.09
2019-02-22T14:59:11.197Z,102434.42
2019-02-22T15:01:39.080Z,102426.66
2019-02-22T15:04:06.917Z,102433.47
2019-02-22T15:06:35.036Z,102431.09
2019-02-22T15:09:04.649Z,102426.64
2019-02-22T15:11:32.578Z,102431.46
2019-02-22T15:14:00.356Z,102436.75
2019-02-22T15:16:46.335Z,102438.00
2019-02-22T15:19:15.340Z,102442.05
2019-02-22T15:21:43.342Z,102446.29
2019-02-22T15:24:11.215Z,102449.92
2019-02-22T15:26:39.009Z,102445.56
2019-02-22T15:29:06.883Z,102460.94
2019-02-22T15:31:36.425Z,102469.34
2019-02-22T15:34:04.573Z,102468.20
2019-02-22T15:36:32.393Z,102465.13
2019-02-22T15:39:00.136Z,102461.66
2019-02-22T15:41:27.884Z,102473.90
2019-02-22T15:43:55.746Z,102483.20
2019-02-22T15:46:23.673Z,102485.52
2019-02-22T15:48:51.476Z,102488.69
2019-02-22T15:51:19.433Z,102487.22
2019-02-22T15:53:47.390Z,102499.97
2019-02-22T15:56:18.327Z,102500.61
2019-02-22T15:58:45.826Z,102505.20
2019-02-22T16:01:14.587Z,102521.13
2019-02-22T16:04:04.039Z,102517.75
2019-02-22T16:06:32.474Z,102529.50
2019-02-22T16:09:01.038Z,102533.72
2019-02-22T16:11:28.994Z,102537.89
2019-02-22T16:13:56.901Z,102549.66
2019-02-22T16:16:24.782Z,102541.93
2019-02-22T16:18:53.209Z,102549.03
2019-02-22T16:21:20.974Z,102552.53
2019-02-22T16:23:49.819Z,102559.77
2019-02-22T16:26:22.055Z,102565.69
2019-02-22T16:28:49.874Z,102569.90
2019-02-22T16:31:17.821Z,102578.41
2019-02-22T16:33:45.759Z,102588.52
2019-02-22T16:36:13.652Z,102585.02
2019-02-22T16:38:41.498Z,102596.45
2019-02-22T16:41:09.444Z,102601.59
2019-02-22T16:43:37.278Z,102596.58
2019-02-22T16:46:05.231Z,102593.91
2019-02-22T16:48:33.160Z,102596.96
2019-02-22T16:51:01.111Z,102597.12
2019-02-22T16:53:28.950Z,102600.39
2019-02-22T16:55:57.234Z,102612.83
2019-02-22T16:58:25.067Z,102608.31
2019-02-22T17:00:52.891Z,102612.47
2019-02-22T17:03:20.907Z,102621.26
2019-02-22T17:05:48.768Z,102622.39
2019-02-22T17:08:16.692Z,102626.55
2019-02-22T17:10:44.474Z,102631.94
2019-02-22T17:13:12.291Z,102642.65
2019-02-22T17:15:40.175Z,102650.73
2019-02-22T17:18:08.706Z,102664.30
2019-02-22T17:20:36.573Z,102667.42
2019-02-22T17:23:04.400Z,102663.74
2019-02-22T17:25:39.498Z,102670.13
2019-02-22T17:28:07.426Z,102675.17
2019-02-22T17:30:35.211Z,102678.50
2019-02-22T17:33:03.114Z,102681.23
2019-02-22T17:35:30.967Z,102683.25
2019-02-22T17:37:58.765Z,102678.77
2019-02-22T17:40:26.720Z,102680.37
2019-02-22T17:42:54.937Z,102688.45
2019-02-22T17:47:47.900Z,102686.15
2019-02-22T17:50:15.829Z,102694.13
2019-02-22T17:52:43.598Z,102699.23
2019-02-22T17:55:11.540Z,102706.34
2019-02-22T17:57:39.761Z,102711.08
2019-02-22T18:00:11.394Z,102709.77
2019-02-22T18:02:40.060Z,102714.63
2019-02-22T18:05:08.101Z,102712.84
2019-02-22T18:07:36.019Z,102720.69
2019-02-22T18:10:04.169Z,102724.56
2019-02-22T18:12:31.984Z,102727.04
2019-02-22T18:14:59.837Z,102735.03
2019-02-22T18:17:29.514Z,102736.77
2019-02-22T18:19:57.336Z,102734.02
2019-02-22T18:22:26.201Z,102744.13
2019-02-22T18:24:54.840Z,102736.80
2019-02-22T18:27:34.316Z,102736.67
2019-02-22T18:29:59.885Z,102744.13
2019-02-22T18:32:27.668Z,102747.12
2019-02-22T18:34:55.495Z,102756.70
2019-02-22T18:37:23.251Z,102752.94
2019-02-22T18:39:51.089Z,102754.28
2019-02-22T18:42:19.074Z,102760.94
2019-02-22T18:44:46.906Z,102768.17
2019-02-22T18:47:19.343Z,102776.77
2019-02-22T18:49:44.567Z,102777.80
2019-02-22T18:52:12.417Z,102780.66
2019-02-22T18:54:40.749Z,102786.92
2019-02-22T18:57:08.496Z,102789.75
2019-02-22T18:59:36.312Z,102792.05
2019-02-22T19:02:04.184Z,102804.05
2019-02-22T19:04:32.023Z,102803.36
2019-02-22T19:07:01.088Z,102810.00
2019-02-22T19:09:28.892Z,102812.81
2019-02-22T19:11:56.634Z,102814.20
2019-02-22T19:14:24.585Z,102819.52
2019-02-22T19:16:52.352Z,102833.61
2019-02-22T19:19:20.294Z,102829.36
2019-02-22T19:21:48.118Z,102832.57
2019-02-22T19:24:16.966Z,102839.17
2019-02-22T19:26:44.827Z,102844.47
2019-02-22T19:29:12.675Z,102846.27
2019-02-22T19:31:40.541Z,102843.37
2019-02-22T19:34:08.354Z,102852.55
2019-02-22T19:36:36.107Z,102857.47
2019-02-22T19:39:04.960Z,102860.64
2019-02-22T19:41:32.701Z,102858.97
2019-02-22T19:44:00.477Z,102864.25
2019-02-22T19:46:28.372Z,102868.31
2019-02-22T19:48:56.297Z,102874.72
2019-02-22T19:51:24.110Z,102871.66
2019-02-22T19:53:52.007Z,102864.97
2019-02-22T19:56:19.939Z,102866.57
2019-02-22T19:58:47.792Z,102874.08
2019-02-22T20:01:18.930Z,102873.81
2019-02-22T20:03:47.090Z,102880.97
2019-02-22T20:06:15.058Z,102877.25
2019-02-22T20:08:42.797Z,102878.98
2019-02-22T20:11:10.978Z,102885.84
2019-02-22T20:13:38.847Z,102888.30
2019-02-22T20:16:06.888Z,102888.99
2019-02-22T20:18:35.147Z,102893.33
2019-02-22T20:21:03.262Z,102893.63
2019-02-22T20:23:31.038Z,102894.86
2019-02-22T20:25:58.969Z,102910.20
2019-02-22T20:28:26.733Z,102912.59
2019-02-22T20:30:54.595Z,102918.52
2019-02-22T20:33:22.523Z,102919.06
2019-02-22T20:35:50.950Z,102919.98
2019-02-22T20:38:18.878Z,102932.08
2019-02-22T20:40:46.947Z,102936.73
2019-02-22T20:43:15.056Z,102940.00
2019-02-22T20:45:42.891Z,102944.57
2019-02-22T20:48:11.298Z,102954.77
2019-02-22T20:50:39.435Z,102954.05
2019-02-22T20:53:07.462Z,102955.55
2019-02-22T20:55:35.497Z,102954.17
2019-02-22T20:58:03.365Z,102963.34
2019-02-22T21:00:31.304Z,102967.80
2019-02-22T21:03:01.720Z,102963.06
2019-02-22T21:05:29.556Z,102959.70
2019-02-22T21:07:57.347Z,102962.71
2019-02-22T21:10:25.357Z,102970.23
2019-02-22T21:12:53.279Z,102973.74
2019-02-22T21:15:21.211Z,102977.53
2019-02-22T21:17:49.049Z,102986.53
2019-02-22T21:20:17.454Z,102981.53
2019-02-22T21:22:45.442Z,102987.05
2019-02-22T21:25:13.767Z,102985.11
2019-02-22T21:27:41.724Z,102987.88
2019-02-22T21:30:11.643Z,102985.81
2019-02-22T21:32:39.527Z,102991.12
2019-02-22T21:35:08.442Z,102996.86
2019-02-22T21:37:36.554Z,102994.34
2019-02-22T21:40:04.853Z,102994.89
2019-02-22T21:42:32.920Z,102999.34
2019-02-22T21:45:01.006Z,103003.72
2019-02-22T21:47:29.216Z,102999.42
2019-02-22T21:49:57.332Z,103001.27
2019-02-22T21:52:25.593Z,103002.20
2019-02-22T21:54:53.330Z,103004.00
2019-02-22T21:57:21.401Z,103007.98
2019-02-22T21:59:49.436Z,103015.45
2019-02-22T22:02:17.297Z,103021.12
2019-02-22T22:04:45.081Z,103021.62
2019-02-22T22:07:13.185Z,103030.36
2019-02-22T22:09:41.041Z,103031.69
2019-02-22T22:12:08.968Z,103042.16
2019-02-22T22:14:36.740Z,103038.27
2019-02-22T22:17:04.760Z,103047.89
2019-02-22T22:19:32.660Z,103041.40
2019-02-22T22:22:00.582Z,103043.16
2019-02-22T22:24:28.328Z,103045.38
2019-02-22T22:26:56.563Z,103049.73
2019-02-22T22:29:25.121Z,103048.89
2019-02-22T22:31:53.062Z,103044.58
2019-02-22T22:34:20.803Z,103048.94
2019-02-22T22:36:51.460Z,103051.58
2019-02-22T22:39:19.221Z,103056.81
2019-02-22T22:41:47.146Z,103055.96
2019-02-22T22:44:15.508Z,103055.54
2019-02-22T22:46:43.553Z,103060.34
2019-02-22T22:49:11.392Z,103063.01
2019-02-22T22:51:39.811Z,103061.70
2019-02-22T22:54:07.669Z,103060.43
2019-02-22T22:56:35.473Z,103057.85
2019-02-22T22:59:03.488Z,103060.48
2019-02-22T23:01:33.341Z,103064.38
2019-02-22T23:04:01.715Z,103069.19
2019-02-22T23:06:30.842Z,103067.04
2019-02-22T23:08:58.686Z,103069.21
2019-02-22T23:11:26.486Z,103072.72
2019-02-22T23:13:54.339Z,103073.61
2019-02-22T23:16:22.189Z,103074.91
2019-02-22T23:19:01.143Z,103075.36
2019-02-22T23:21:20.444Z,103084.48
2019-02-22T23:23:48.354Z,103090.59
2019-02-22T23:26:16.301Z,103091.04
2019-02-22T23:28:44.337Z,103094.52
2019-02-22T23:31:12.414Z,103089.75
2019-02-22T23:33:40.267Z,103091.06
2019-02-22T23:36:08.109Z,103087.59
2019-02-22T23:38:35.963Z,103089.00
2019-02-22T23:41:03.750Z,103095.48
2019-02-22T23:43:31.645Z,103097.87
2019-02-22T23:45:59.727Z,103104.75
2019-02-22T23:48:27.595Z,103097.02
2019-02-22T23:50:55.543Z,103097.80
2019-02-22T23:53:23.445Z,103101.75
2019-02-22T23:55:51.191Z,103102.15
2019-02-22T23:58:19.008Z,103100.68
